This is the latest recevied weather packets stored in our database for station/object DO6MJ-1. If no packets are shown the sender has not sent any weather packets the latest 10 day(s).
| Time | Temp. | Humidity | Pressure | Rain* | Wind** | Luminosity | Snow |
|---|---|---|---|---|---|---|---|
| 1777844554 | 18.33° C | 59% | 1003.8 hPa | 0 mm | - | - | - |
| 1777843354 | 18.33° C | 58% | 1003.8 hPa | 0 mm | - | - | - |
| 1777842154 | 18.89° C | 57% | 1003.8 hPa | 0 mm | - | - | - |
| 1777840953 | 18.89° C | 55% | 1003.8 hPa | 0 mm | - | - | - |
| 1777839753 | 19.44° C | 54% | 1003.8 hPa | 0 mm | - | - | - |
| 1777838553 | 20° C | 50% | 1003.7 hPa | 0 mm | - | - | - |
| 1777837352 | 20° C | 48% | 1003.4 hPa | 0 mm | - | - | - |
| 1777836152 | 20.56° C | 47% | 1003.2 hPa | 0 mm | - | - | - |
| 1777834952 | 21.11° C | 45% | 1002.8 hPa | 0 mm | - | - | - |
| 1777833752 | 21.67° C | 42% | 1002.6 hPa | 0 mm | - | - | - |
| 1777832551 | 22.22° C | 39% | 1002.3 hPa | 0 mm | - | - | - |
| 1777831351 | 22.78° C | 38% | 1002.1 hPa | 0 mm | - | - | - |
| 1777830151 | 23.33° C | 38% | 1002.1 hPa | 0 mm | - | - | - |
| 1777828951 | 23.33° C | 37% | 1002 hPa | 0 mm | - | - | - |
| 1777827750 | 23.89° C | 37% | 1002 hPa | 0 mm | - | - | - |
| 1777826550 | 25° C | 36% | 1002.1 hPa | 0 mm | - | - | - |
| 1777825350 | 26.11° C | 34% | 1002 hPa | 0 mm | - | - | - |
| 1777824150 | 26.67° C | 34% | 1001.8 hPa | 0 mm | - | - | - |
| 1777822949 | 27.22° C | 32% | 1001.8 hPa | 0 mm | - | - | - |
| 1777821749 | 27.78° C | 31% | 1001.9 hPa | 0 mm | - | - | - |
| 1777820549 | 27.78° C | 31% | 1001.9 hPa | 0 mm | - | - | - |
| 1777819348 | 28.33° C | 30% | 1002 hPa | 0 mm | - | - | - |
| 1777818148 | 28.89° C | 29% | 1002 hPa | 0 mm | - | - | - |
| 1777816948 | 28.89° C | 30% | 1002.2 hPa | 0 mm | - | - | - |
| 1777815747 | 28.89° C | 30% | 1002.3 hPa | 0 mm | - | - | - |
* Rain latest hour (hover to see other rain measurements)
** Current wind speed in m/s (hover to see current wind gust speed)